Pagina principale
METAR-TAF:

METAR-TAF

Aeroporti :

Aeroporto di Enfida-Hammamet

Hammamet, Tunisia

latitudine: 36-04-34N, longitudine: 10-26-19E, altezza: 6 m

Osservazione

Il bollettino è stato emesso 33 minuti fa, alle 16:30 UTC
Vento 12 kt da est
Temperature 23°C
Umidità 61%
Pressione 1014 hPa
Visibilità 10 km o più
nessuna nube inferiore a 1500 m e nessun cumulonembo

METAR: DTNH 311630Z AUTO 09012KT CAVOK 23/15 Q1014

Ora: 18:03 (17:03 UTC)

Previsione

Il bollettino è stato emesso 6 ore e 3 minuti fa, alle 11:00 UTC
Previsione valida dal 31 alle 12 UTC al 01 alle 12 UTC
Vento 10 kt da est
Visibilità 10 km o più
Nubi sparse ad un'altezza di 3000 ft
Evoluzione graduale
dal 31 alle 18 UTC al 31 alle 20 UTC
Vento 3 kt da direzioni variabili
Evoluzione graduale
dal 01 alle 09 UTC al 01 alle 11 UTC
Vento 12 kt da est

TAF: DTNH 311100Z 3112/0112 10010KT 9999 SCT030 BECMG 3118/3120 VRB03KT BECMG 0109/0111 09012KT

Osservazioni e previsioni meteorologiche di più di 4000 aeroporti (messaggi METAR e TAF).

Le stazioni disponibili sono rappresentate dai dischi gialli e rossi sulla carta.

Puntare il mouse per vedere il nome della stazione.

Clicca sopra per visualizzare le osservazioni e previsioni meteorologiche.

Per cambiare la mappa : fare clic sui pulsanti verdi con una croce nera per ingrandire, il pulsante verde con un trattino per diminuire, o sulla freccia verde per le mappe adiacenti.


METAR-TAF: